createdAt,value
2018-09-05T00:02:14.368Z,62.77
2018-09-05T00:04:42.770Z,60.33
2018-09-05T00:07:11.053Z,67.80
2018-09-05T00:09:39.405Z,57.57
2018-09-05T00:12:07.737Z,73.00
2018-09-05T00:14:36.105Z,64.77
2018-09-05T00:17:04.498Z,70.03
2018-09-05T00:19:32.808Z,71.97
2018-09-05T00:22:01.154Z,60.30
2018-09-05T00:24:29.506Z,62.67
2018-09-05T00:26:57.828Z,70.03
2018-09-05T00:29:26.281Z,81.87
2018-09-05T00:31:54.673Z,70.97
2018-09-05T00:34:23.000Z,68.77
2018-09-05T00:36:51.393Z,75.23
2018-09-05T00:39:19.724Z,71.93
2018-09-05T00:41:48.186Z,76.40
2018-09-05T00:44:16.468Z,69.77
2018-09-05T00:46:44.898Z,71.93
2018-09-05T00:49:13.340Z,75.10
2018-09-05T00:51:41.712Z,76.37
2018-09-05T00:54:10.091Z,76.73
2018-09-05T00:56:38.485Z,71.67
2018-09-05T00:59:06.836Z,73.23
2018-09-05T01:01:35.127Z,79.37
2018-09-05T01:04:03.694Z,80.37
2018-09-05T01:06:31.961Z,90.27
2018-09-05T01:09:00.270Z,81.57
2018-09-05T01:11:28.617Z,84.77
2018-09-05T01:13:56.941Z,82.70
2018-09-05T01:16:25.255Z,94.93
2018-09-05T01:18:53.580Z,89.57
2018-09-05T01:21:22.245Z,88.03
2018-09-05T01:23:50.602Z,92.27
2018-09-05T01:26:18.954Z,91.57
2018-09-05T01:28:47.286Z,98.67
2018-09-05T01:31:15.628Z,98.83
2018-09-05T01:33:43.957Z,97.13
2018-09-05T01:36:15.190Z,98.50
2018-09-05T01:38:43.879Z,93.63
2018-09-05T01:41:13.573Z,106.53
2018-09-05T01:43:42.602Z,96.63
2018-09-05T01:46:11.087Z,103.23
2018-09-05T01:48:39.746Z,94.50
2018-09-05T01:51:08.107Z,98.33
2018-09-05T01:53:36.554Z,98.63
2018-09-05T01:56:04.879Z,92.73
2018-09-05T01:58:33.258Z,102.63
2018-09-05T02:01:01.613Z,102.03
2018-09-05T02:03:30.809Z,105.57
2018-09-05T02:05:59.240Z,103.27
2018-09-05T02:08:27.852Z,106.03
2018-09-05T02:10:56.101Z,102.00
2018-09-05T02:13:24.574Z,101.20
2018-09-05T02:15:52.937Z,107.47
2018-09-05T02:18:21.356Z,104.27
2018-09-05T02:20:49.733Z,103.70
2018-09-05T02:23:18.080Z,105.83
2018-09-05T02:25:46.407Z,101.53
2018-09-05T02:28:14.829Z,106.63
2018-09-05T02:30:43.153Z,103.63
2018-09-05T02:33:11.578Z,103.07
2018-09-05T02:35:39.989Z,108.57
2018-09-05T02:38:09.300Z,107.40
2018-09-05T02:40:37.677Z,108.37
2018-09-05T02:43:06.132Z,112.90
2018-09-05T02:45:34.451Z,107.23
2018-09-05T02:48:02.761Z,107.13
2018-09-05T02:50:31.183Z,106.50
2018-09-05T02:52:59.507Z,109.33
2018-09-05T02:55:33.102Z,110.37
2018-09-05T02:58:01.597Z,103.97
2018-09-05T03:00:29.959Z,104.90
2018-09-05T03:02:58.225Z,105.83
2018-09-05T03:05:26.532Z,101.10
2018-09-05T03:07:54.853Z,105.90
2018-09-05T03:10:23.275Z,107.90
2018-09-05T03:12:51.693Z,98.10
2018-09-05T03:15:20.070Z,106.10
2018-09-05T03:17:48.464Z,106.27
2018-09-05T03:20:16.861Z,109.00
2018-09-05T03:22:45.388Z,105.37
2018-09-05T03:25:13.712Z,104.60
2018-09-05T03:27:42.066Z,112.27
2018-09-05T03:30:10.800Z,109.50
2018-09-05T03:32:39.218Z,116.47
2018-09-05T03:35:07.678Z,105.83
2018-09-05T03:37:36.041Z,114.00
2018-09-05T03:40:04.366Z,110.97
2018-09-05T03:42:32.831Z,113.53
2018-09-05T03:45:01.318Z,114.50
2018-09-05T03:47:29.987Z,114.13
2018-09-05T03:49:58.400Z,116.67
2018-09-05T03:52:26.848Z,115.53
2018-09-05T03:54:55.182Z,112.43
2018-09-05T03:57:23.553Z,117.57
2018-09-05T03:59:52.102Z,127.43
2018-09-05T04:02:20.476Z,118.40
2018-09-05T04:04:48.974Z,109.73
2018-09-05T04:07:17.394Z,115.87
2018-09-05T04:09:45.771Z,116.33
2018-09-05T04:12:14.350Z,114.40
2018-09-05T04:14:42.808Z,115.67
2018-09-05T04:17:11.186Z,114.53
2018-09-05T04:19:39.627Z,118.27
2018-09-05T04:22:07.984Z,110.30
2018-09-05T04:24:36.363Z,119.83
2018-09-05T04:27:04.820Z,114.83
2018-09-05T04:29:33.259Z,115.53
2018-09-05T04:32:01.709Z,114.37
2018-09-05T04:34:30.110Z,120.20
2018-09-05T04:36:58.499Z,118.70
2018-09-05T04:39:26.862Z,124.70
2018-09-05T04:41:55.309Z,115.83
2018-09-05T04:44:23.672Z,118.20
2018-09-05T04:46:52.024Z,120.97
2018-09-05T04:49:20.407Z,122.33
2018-09-05T04:51:48.802Z,125.87
2018-09-05T04:54:17.248Z,117.33
2018-09-05T04:56:45.648Z,115.70
2018-09-05T04:59:14.004Z,119.63
2018-09-05T05:01:42.336Z,115.90
2018-09-05T05:04:10.747Z,119.23
2018-09-05T05:06:39.140Z,114.93
2018-09-05T05:09:10.999Z,118.40
2018-09-05T05:11:40.328Z,121.87
2018-09-05T05:14:08.871Z,123.37
2018-09-05T05:16:37.276Z,116.27
2018-09-05T05:19:06.165Z,120.07
2018-09-05T05:21:34.623Z,113.20
2018-09-05T05:24:02.997Z,112.60
2018-09-05T05:26:31.386Z,94.10
2018-09-05T05:28:59.813Z,97.57
2018-09-05T05:31:28.372Z,100.73
2018-09-05T05:33:56.757Z,92.93
2018-09-05T05:36:25.233Z,87.60
2018-09-05T05:38:53.688Z,88.37
2018-09-05T05:41:22.115Z,75.33
2018-09-05T05:43:51.239Z,71.93
2018-09-05T05:46:19.816Z,71.40
2018-09-05T05:48:48.274Z,63.97
2018-09-05T05:51:16.765Z,55.33
2018-09-05T05:53:45.250Z,61.80
2018-09-05T05:56:13.596Z,51.43
2018-09-05T05:58:42.059Z,49.17
2018-09-05T06:01:10.568Z,55.97
2018-09-05T06:03:38.947Z,68.53
2018-09-05T06:06:07.066Z,89.40
2018-09-05T06:08:36.974Z,88.10
2018-09-05T06:11:06.125Z,83.50
2018-09-05T06:13:34.534Z,84.27
2018-09-05T06:16:02.921Z,84.23
2018-09-05T06:18:31.473Z,87.60
2018-09-05T06:21:00.187Z,82.17
2018-09-05T06:23:29.545Z,70.53
2018-09-05T06:25:57.923Z,67.23
2018-09-05T06:28:26.749Z,59.57
2018-09-05T06:30:55.149Z,61.10
2018-09-05T06:33:23.551Z,56.73
2018-09-05T06:35:52.021Z,58.80
2018-09-05T06:38:20.472Z,59.23
2018-09-05T06:40:48.813Z,51.23
2018-09-05T06:43:17.149Z,46.67
2018-09-05T06:45:45.526Z,48.53
2018-09-05T06:48:13.891Z,54.10
2018-09-05T06:50:42.240Z,57.80
2018-09-05T06:53:10.626Z,56.70
2018-09-05T06:55:39.071Z,59.30
2018-09-05T06:58:07.540Z,61.60
2018-09-05T07:00:35.867Z,66.90
2018-09-05T07:03:04.303Z,63.17
2018-09-05T07:05:32.796Z,62.20
2018-09-05T07:08:01.205Z,58.53
2018-09-05T07:10:29.657Z,49.87
2018-09-05T07:12:58.225Z,55.57
2018-09-05T07:15:26.648Z,49.93
2018-09-05T07:17:55.088Z,54.30
2018-09-05T07:20:23.508Z,49.27
2018-09-05T07:22:52.056Z,50.13
2018-09-05T07:25:20.441Z,52.97
2018-09-05T07:27:48.905Z,47.77
2018-09-05T07:30:17.905Z,43.53
2018-09-05T07:32:46.647Z,43.63
2018-09-05T07:35:15.083Z,46.43
2018-09-05T07:37:43.507Z,47.10
2018-09-05T07:40:12.028Z,45.67
2018-09-05T07:42:40.512Z,44.47
2018-09-05T07:45:08.926Z,45.80
2018-09-05T07:47:37.808Z,39.57
2018-09-05T07:50:06.706Z,39.00
2018-09-05T07:52:35.204Z,40.60
2018-09-05T07:55:03.560Z,39.50
2018-09-05T07:57:31.987Z,39.27
2018-09-05T08:00:00.392Z,41.70
2018-09-05T08:02:28.725Z,42.03
2018-09-05T08:04:57.193Z,40.33
2018-09-05T08:07:25.595Z,54.67
2018-09-05T08:09:54.090Z,51.57
2018-09-05T08:12:22.449Z,50.47
2018-09-05T08:14:50.870Z,52.47
2018-09-05T08:17:19.370Z,50.77
2018-09-05T08:19:47.768Z,43.60
2018-09-05T08:22:16.142Z,44.53
2018-09-05T08:24:44.630Z,41.80
2018-09-05T08:27:13.008Z,40.87
2018-09-05T08:29:41.507Z,40.57
2018-09-05T08:32:10.198Z,38.37
2018-09-05T08:34:38.737Z,35.73
2018-09-05T08:37:07.340Z,32.37
2018-09-05T08:39:35.589Z,34.00
2018-09-05T08:42:04.170Z,30.70
2018-09-05T08:44:32.566Z,28.53
2018-09-05T08:47:00.966Z,29.83
2018-09-05T08:49:29.286Z,26.47
2018-09-05T08:51:57.620Z,23.73
2018-09-05T08:54:25.957Z,25.83
2018-09-05T08:56:54.546Z,21.17
2018-09-05T08:59:23.451Z,16.97
2018-09-05T09:01:51.872Z,16.57
2018-09-05T09:04:20.274Z,27.20
2018-09-05T09:06:48.671Z,23.77
2018-09-05T09:09:17.041Z,18.60
2018-09-05T09:11:45.559Z,14.03
2018-09-05T09:14:15.891Z,13.93
2018-09-05T09:16:44.338Z,14.87
2018-09-05T09:19:12.722Z,13.43
2018-09-05T09:21:41.187Z,15.00
2018-09-05T09:24:09.932Z,14.50
2018-09-05T09:26:38.281Z,13.83
2018-09-05T09:29:06.765Z,28.30
2018-09-05T09:31:35.204Z,18.60
2018-09-05T09:34:03.654Z,18.70
2018-09-05T09:36:33.039Z,32.80
2018-09-05T09:39:02.421Z,26.10
2018-09-05T09:41:30.848Z,23.17
2018-09-05T09:43:59.303Z,19.77
2018-09-05T09:46:28.210Z,20.43
2018-09-05T09:48:56.761Z,16.93
2018-09-05T09:51:25.178Z,18.80
2018-09-05T09:53:54.041Z,16.23
2018-09-05T09:56:22.932Z,18.83
2018-09-05T09:58:51.274Z,17.83
2018-09-05T10:01:24.867Z,17.73
2018-09-05T10:03:58.694Z,17.67
2018-09-05T10:06:32.351Z,17.97
2018-09-05T10:09:06.124Z,19.17
2018-09-05T10:11:39.943Z,18.53
2018-09-05T10:14:10.784Z,16.67
2018-09-05T10:17:42.942Z,17.63
2018-09-05T10:20:11.337Z,15.90
2018-09-05T10:22:40.374Z,19.63
2018-09-05T10:25:08.849Z,18.70
2018-09-05T10:27:37.169Z,19.40
2018-09-05T10:30:05.563Z,18.93
2018-09-05T10:32:33.896Z,20.33
2018-09-05T10:35:02.211Z,20.90
2018-09-05T10:37:30.577Z,17.80
2018-09-05T10:39:58.891Z,18.40
2018-09-05T10:42:27.241Z,24.23
2018-09-05T10:44:55.638Z,21.43
2018-09-05T10:47:23.971Z,24.73
2018-09-05T10:49:52.354Z,22.87
2018-09-05T10:52:20.712Z,21.93
2018-09-05T10:54:49.070Z,22.23
2018-09-05T10:57:18.131Z,21.00
2018-09-05T10:59:46.472Z,21.60
2018-09-05T11:02:15.165Z,21.53
2018-09-05T11:04:43.527Z,20.40
2018-09-05T11:07:11.829Z,20.07
2018-09-05T11:09:40.176Z,19.77
2018-09-05T11:12:08.523Z,20.63
2018-09-05T11:14:36.888Z,20.13
2018-09-05T11:17:05.311Z,20.33
2018-09-05T11:19:33.770Z,22.00
2018-09-05T11:22:02.111Z,19.97
2018-09-05T11:24:30.541Z,17.93
2018-09-05T11:26:58.915Z,17.73
2018-09-05T11:29:27.319Z,18.50
2018-09-05T11:31:55.835Z,16.17
2018-09-05T11:34:24.280Z,17.23
2018-09-05T11:36:52.738Z,17.00
2018-09-05T11:39:21.038Z,15.30
2018-09-05T11:41:49.514Z,17.37
2018-09-05T11:44:17.824Z,18.33
2018-09-05T11:46:46.186Z,17.07
2018-09-05T11:49:14.544Z,19.07
2018-09-05T11:51:42.909Z,17.77
2018-09-05T11:54:11.306Z,17.97
2018-09-05T11:56:39.721Z,19.13
2018-09-05T11:59:08.296Z,18.87
2018-09-05T12:01:36.673Z,20.77
2018-09-05T12:04:05.089Z,19.00
2018-09-05T12:06:33.473Z,22.27
2018-09-05T12:09:01.934Z,20.07
2018-09-05T12:11:30.320Z,20.67
2018-09-05T12:13:58.621Z,21.93
2018-09-05T12:16:26.971Z,21.03
2018-09-05T12:18:55.274Z,21.10
2018-09-05T12:21:23.617Z,19.83
2018-09-05T12:23:51.940Z,20.43
2018-09-05T12:26:20.306Z,21.57
2018-09-05T12:28:48.661Z,18.10
2018-09-05T12:31:17.008Z,19.93
2018-09-05T12:33:45.339Z,19.87
2018-09-05T12:36:13.704Z,19.13
2018-09-05T12:38:42.058Z,18.83
2018-09-05T12:41:10.585Z,17.50
2018-09-05T12:43:39.007Z,19.63
2018-09-05T12:46:07.373Z,21.80
2018-09-05T12:48:35.714Z,19.07
2018-09-05T12:51:04.077Z,17.27
2018-09-05T12:53:32.391Z,19.47
2018-09-05T12:56:00.793Z,18.93
2018-09-05T12:58:29.201Z,18.17
2018-09-05T13:00:59.788Z,19.93
2018-09-05T13:03:29.387Z,18.90
2018-09-05T13:05:59.599Z,20.70
2018-09-05T13:08:28.431Z,20.60
2018-09-05T13:10:56.839Z,20.00
2018-09-05T13:13:25.156Z,20.13
2018-09-05T13:15:53.760Z,19.00
2018-09-05T13:18:22.147Z,20.77
2018-09-05T13:20:50.942Z,19.07
2018-09-05T13:23:19.440Z,21.50
2018-09-05T13:25:47.777Z,19.93
2018-09-05T13:28:16.074Z,20.93
2018-09-05T13:30:45.040Z,21.37
2018-09-05T13:33:13.470Z,20.93
2018-09-05T13:35:41.848Z,23.03
2018-09-05T13:38:10.284Z,22.30
2018-09-05T13:40:38.803Z,21.97
2018-09-05T13:43:07.328Z,20.63
2018-09-05T13:45:35.755Z,19.40
2018-09-05T13:48:04.134Z,21.07
2018-09-05T13:50:32.599Z,20.23
2018-09-05T13:53:00.985Z,18.70
2018-09-05T13:55:29.410Z,19.63
2018-09-05T13:57:57.741Z,17.53
2018-09-05T14:00:26.076Z,16.40
2018-09-05T14:02:54.499Z,17.50
2018-09-05T14:05:22.790Z,16.97
2018-09-05T14:07:51.143Z,18.23
2018-09-05T14:10:19.521Z,17.10
2018-09-05T14:12:47.943Z,16.23
2018-09-05T14:15:16.319Z,18.10
2018-09-05T14:17:44.704Z,20.73
2018-09-05T14:20:13.127Z,16.87
2018-09-05T14:22:41.510Z,18.30
2018-09-05T14:25:10.606Z,18.67
2018-09-05T14:27:38.971Z,15.97
2018-09-05T14:30:07.382Z,18.03
2018-09-05T14:32:35.737Z,16.20
2018-09-05T14:35:04.163Z,15.70
2018-09-05T14:37:32.554Z,15.73
2018-09-05T14:40:00.979Z,18.73
2018-09-05T14:42:29.353Z,14.73
2018-09-05T14:44:57.753Z,15.03
2018-09-05T14:47:26.127Z,13.60
2018-09-05T14:49:54.523Z,15.23
2018-09-05T14:52:22.852Z,13.37
2018-09-05T14:54:51.203Z,13.87
2018-09-05T14:57:19.504Z,12.20
2018-09-05T14:59:48.016Z,11.70
2018-09-05T15:02:16.309Z,10.00
2018-09-05T15:04:44.642Z,10.33
2018-09-05T15:07:13.047Z,10.47
2018-09-05T15:09:41.390Z,10.63
2018-09-05T15:12:09.712Z,10.23
2018-09-05T15:14:38.091Z,9.53
2018-09-05T15:17:06.490Z,9.00
2018-09-05T15:19:34.875Z,9.40
2018-09-05T15:22:03.360Z,13.17
2018-09-05T15:24:31.681Z,13.87
2018-09-05T15:27:00.091Z,14.60
2018-09-05T15:29:28.626Z,15.00
2018-09-05T15:31:57.021Z,12.67
2018-09-05T15:34:27.130Z,15.50
2018-09-05T15:36:55.475Z,13.00
2018-09-05T15:39:23.796Z,13.53
2018-09-05T15:41:52.074Z,15.23
2018-09-05T15:44:20.378Z,17.40
2018-09-05T15:46:48.755Z,13.93
2018-09-05T15:49:18.587Z,14.20
2018-09-05T15:51:46.983Z,14.13
2018-09-05T15:54:15.318Z,13.00
2018-09-05T15:56:43.601Z,14.07
2018-09-05T15:59:11.935Z,14.43
2018-09-05T16:01:40.335Z,13.97
2018-09-05T16:04:08.686Z,13.73
2018-09-05T16:06:38.107Z,15.60
2018-09-05T16:09:07.823Z,14.73
2018-09-05T16:11:36.245Z,16.53
2018-09-05T16:14:04.700Z,19.37
2018-09-05T16:16:34.196Z,18.10
2018-09-05T16:19:02.559Z,20.47
2018-09-05T16:21:30.895Z,17.20
2018-09-05T16:23:59.206Z,20.40
2018-09-05T16:26:27.583Z,22.40
2018-09-05T16:28:55.936Z,23.13
2018-09-05T16:31:24.415Z,21.77
2018-09-05T16:33:52.867Z,22.03
2018-09-05T16:36:21.464Z,24.23
2018-09-05T16:38:50.568Z,24.43
2018-09-05T16:41:19.169Z,27.03
2018-09-05T16:43:47.604Z,27.53
2018-09-05T16:46:16.197Z,27.27
2018-09-05T16:48:44.825Z,28.10
2018-09-05T16:51:13.260Z,30.30
2018-09-05T16:53:41.876Z,24.63
2018-09-05T16:56:10.292Z,33.00
2018-09-05T16:58:38.689Z,31.17
2018-09-05T17:01:09.060Z,30.87
2018-09-05T17:03:37.473Z,34.73
2018-09-05T17:06:05.897Z,32.20
2018-09-05T17:08:34.366Z,33.27
2018-09-05T17:11:02.804Z,34.83
2018-09-05T17:13:31.215Z,33.60
2018-09-05T17:15:59.637Z,30.20
2018-09-05T17:18:28.105Z,31.73
2018-09-05T17:20:56.449Z,31.00
2018-09-05T17:23:25.087Z,33.23
2018-09-05T17:25:53.751Z,32.90
2018-09-05T17:28:22.391Z,32.63
2018-09-05T17:30:50.928Z,31.83
2018-09-05T17:33:19.444Z,32.13
2018-09-05T17:35:47.915Z,30.47
2018-09-05T17:38:16.849Z,29.03
2018-09-05T17:40:46.099Z,36.23
2018-09-05T17:43:14.811Z,24.80
2018-09-05T17:45:43.741Z,31.30
2018-09-05T17:48:13.130Z,30.50
2018-09-05T17:50:42.252Z,34.90
2018-09-05T17:53:10.563Z,36.20
2018-09-05T17:55:38.895Z,31.97
2018-09-05T17:58:07.369Z,35.17
2018-09-05T18:00:35.766Z,35.50
2018-09-05T18:03:04.042Z,34.00
2018-09-05T18:05:32.404Z,30.00
2018-09-05T18:08:00.722Z,34.50
2018-09-05T18:10:29.203Z,31.80
2018-09-05T18:12:57.508Z,29.37
2018-09-05T18:15:25.857Z,32.00
2018-09-05T18:17:54.206Z,29.27
2018-09-05T18:20:22.602Z,32.47
2018-09-05T18:22:51.012Z,32.73
2018-09-05T18:25:19.358Z,30.40
2018-09-05T18:27:47.740Z,36.87
2018-09-05T18:30:16.062Z,32.90
2018-09-05T18:32:45.198Z,34.73
2018-09-05T18:35:13.605Z,38.00
2018-09-05T18:37:42.042Z,37.97
2018-09-05T18:40:10.961Z,39.77
2018-09-05T18:42:39.581Z,41.87
2018-09-05T18:45:08.543Z,37.83
2018-09-05T18:47:37.559Z,40.67
2018-09-05T18:50:06.727Z,39.43
2018-09-05T18:52:42.120Z,40.40
2018-09-05T18:55:10.544Z,42.93
2018-09-05T18:57:47.453Z,42.20
2018-09-05T19:00:15.872Z,42.40
2018-09-05T19:02:45.373Z,39.57
2018-09-05T19:05:14.160Z,44.73
2018-09-05T19:07:42.703Z,43.70
2018-09-05T19:10:12.390Z,48.90
2018-09-05T19:12:41.045Z,48.57
2018-09-05T19:15:09.721Z,42.13
2018-09-05T19:17:38.610Z,46.30
2018-09-05T19:20:06.964Z,49.97
2018-09-05T19:22:35.389Z,42.90
2018-09-05T19:25:03.891Z,50.27
2018-09-05T19:27:32.213Z,47.27
2018-09-05T19:30:00.529Z,43.90
2018-09-05T19:32:29.527Z,46.87
2018-09-05T19:34:58.071Z,43.20
2018-09-05T19:37:26.387Z,45.50
2018-09-05T19:39:54.773Z,39.90
2018-09-05T19:42:23.193Z,38.33
2018-09-05T19:44:51.580Z,32.50
2018-09-05T19:47:19.978Z,37.40
2018-09-05T19:49:48.333Z,31.93
2018-09-05T19:52:16.675Z,31.63
2018-09-05T19:54:45.025Z,27.70
2018-09-05T19:57:14.647Z,30.37
2018-09-05T19:59:42.999Z,29.07
2018-09-05T20:02:11.401Z,29.73
2018-09-05T20:04:39.750Z,25.13
2018-09-05T20:07:08.062Z,23.37
2018-09-05T20:09:37.304Z,27.03
2018-09-05T20:12:06.446Z,27.07
2018-09-05T20:14:36.212Z,26.87
2018-09-05T20:17:05.946Z,24.90
2018-09-05T20:19:35.651Z,20.27
2018-09-05T20:22:04.992Z,22.17
2018-09-05T20:24:33.364Z,22.20
2018-09-05T20:27:01.732Z,25.37
2018-09-05T20:29:30.052Z,20.90
2018-09-05T20:31:58.398Z,22.03
2018-09-05T20:34:26.883Z,22.10
2018-09-05T20:36:55.407Z,22.57
2018-09-05T20:39:23.741Z,21.83
2018-09-05T20:41:52.066Z,26.23
2018-09-05T20:44:20.499Z,28.73
2018-09-05T20:46:49.463Z,22.80
2018-09-05T20:49:17.868Z,31.00
2018-09-05T20:51:47.395Z,24.67
2018-09-05T20:54:15.744Z,26.67
2018-09-05T20:56:44.292Z,28.07
2018-09-05T20:59:12.675Z,28.03
2018-09-05T21:01:41.018Z,27.27
2018-09-05T21:04:09.352Z,31.93
2018-09-05T21:06:37.743Z,28.60
2018-09-05T21:09:07.067Z,39.13
2018-09-05T21:11:35.444Z,30.30
2018-09-05T21:14:03.855Z,33.27
2018-09-05T21:16:32.191Z,27.40
2018-09-05T21:19:00.590Z,28.70
2018-09-05T21:21:28.894Z,28.27
2018-09-05T21:23:57.187Z,34.87
2018-09-05T21:26:25.505Z,26.70
2018-09-05T21:28:53.801Z,27.80
2018-09-05T21:31:22.144Z,23.77
2018-09-05T21:33:50.447Z,25.47
2018-09-05T21:36:18.889Z,26.40
2018-09-05T21:38:47.105Z,28.97
2018-09-05T21:41:15.424Z,25.47
2018-09-05T21:43:43.737Z,27.40
2018-09-05T21:46:12.140Z,23.20
2018-09-05T21:48:40.496Z,23.33
2018-09-05T21:51:08.794Z,23.90
2018-09-05T21:53:37.091Z,21.47
2018-09-05T21:56:05.561Z,25.40
2018-09-05T21:58:33.890Z,26.37
2018-09-05T22:01:02.235Z,20.10
2018-09-05T22:03:30.631Z,19.77
2018-09-05T22:05:58.926Z,23.93
2018-09-05T22:08:27.425Z,26.00
2018-09-05T22:10:55.823Z,25.37
2018-09-05T22:13:24.159Z,22.63
2018-09-05T22:15:52.495Z,20.60
2018-09-05T22:18:20.791Z,25.00
2018-09-05T22:20:49.108Z,26.63
2018-09-05T22:23:17.440Z,20.73
2018-09-05T22:25:45.791Z,23.70
2018-09-05T22:28:14.143Z,23.23
2018-09-05T22:30:42.486Z,20.63
2018-09-05T22:33:10.791Z,25.03
2018-09-05T22:35:39.117Z,24.83
2018-09-05T22:38:07.428Z,24.33
2018-09-05T22:40:41.207Z,23.77
2018-09-05T22:43:20.918Z,24.33
2018-09-05T22:47:04.070Z,27.90
2018-09-05T22:51:52.838Z,23.97
2018-09-05T22:54:40.927Z,24.97
2018-09-05T22:57:28.352Z,25.27
2018-09-05T23:00:06.823Z,27.87
2018-09-05T23:02:48.378Z,25.20
2018-09-05T23:05:26.781Z,24.37
2018-09-05T23:08:40.730Z,26.90
2018-09-05T23:11:20.723Z,31.30
2018-09-05T23:14:00.439Z,30.97
2018-09-05T23:16:40.405Z,30.67
2018-09-05T23:19:29.208Z,25.17
2018-09-05T23:21:57.587Z,32.23
2018-09-05T23:24:25.870Z,33.80
2018-09-05T23:26:54.178Z,28.93
2018-09-05T23:29:22.606Z,31.10
2018-09-05T23:31:50.922Z,28.90
2018-09-05T23:34:19.232Z,29.70
2018-09-05T23:36:47.552Z,38.57
2018-09-05T23:39:15.996Z,34.53
2018-09-05T23:41:44.312Z,39.77
2018-09-05T23:44:12.648Z,39.07
2018-09-05T23:46:40.949Z,38.50
2018-09-05T23:49:09.243Z,42.23
2018-09-05T23:51:37.595Z,46.20
2018-09-05T23:54:06.271Z,48.77
2018-09-05T23:56:34.598Z,60.40
2018-09-05T23:59:06.944Z,58.33
